Mountainair, New Mexico
Current Conditions -  °F | °C
As of 11:35 AM on Thursday 30 Oct 2014 (Local Time) from K0E0 Reporting Station
Clear Clear  
Wind Chill: 66°   Ceiling: Unl
Heat Index: 66°   Visibility: 10mi
Dew Point: 14°   Wind: 8mph
Humidity: 14%   Direction: 170°S
Pressure: 30.4"   Gusts: NA
Location:  34.52°N, 106.24°W
Report Text: K0E0 301735Z AUTO 17007KT 10SM CLR 19/M10 A3040 RMK AO2 T01871098
Loading
Personal Weather Stations






























Interactive Weather Map
Tropical Storm Tracking
New forecast layout! Learn more

10-Day Weather Forecast

Advertisements
Track Severe Weather on mobile